sensor_id;sensor_type;location;lat;lon;timestamp;P1;durP1;ratioP1;P2;durP2;ratioP2
69822;SDS011;57119;52.516;13.508;2023-05-14T00:00:06;13.17;;;7.07;;
69822;SDS011;57119;52.516;13.508;2023-05-14T00:02:32;13.00;;;6.93;;
69822;SDS011;57119;52.516;13.508;2023-05-14T00:04:57;11.23;;;6.37;;
69822;SDS011;57119;52.516;13.508;2023-05-14T00:07:23;10.53;;;6.30;;
69822;SDS011;57119;52.516;13.508;2023-05-14T00:09:54;10.43;;;6.75;;
69822;SDS011;57119;52.516;13.508;2023-05-14T00:12:20;9.32;;;6.22;;
69822;SDS011;57119;52.516;13.508;2023-05-14T00:14:45;10.37;;;6.97;;
69822;SDS011;57119;52.516;13.508;2023-05-14T00:17:11;12.00;;;6.57;;
69822;SDS011;57119;52.516;13.508;2023-05-14T00:19:36;27.90;;;14.87;;
69822;SDS011;57119;52.516;13.508;2023-05-14T00:22:05;18.95;;;9.88;;
69822;SDS011;57119;52.516;13.508;2023-05-14T00:24:31;12.73;;;7.22;;
69822;SDS011;57119;52.516;13.508;2023-05-14T00:26:56;10.50;;;6.30;;
69822;SDS011;57119;52.516;13.508;2023-05-14T00:29:22;10.90;;;7.00;;
69822;SDS011;57119;52.516;13.508;2023-05-14T00:31:47;12.97;;;6.50;;
69822;SDS011;57119;52.516;13.508;2023-05-14T00:34:12;10.50;;;6.40;;
69822;SDS011;57119;52.516;13.508;2023-05-14T00:36:38;9.77;;;6.13;;
69822;SDS011;57119;52.516;13.508;2023-05-14T00:39:04;10.97;;;6.40;;
69822;SDS011;57119;52.516;13.508;2023-05-14T00:41:29;11.88;;;6.30;;
69822;SDS011;57119;52.516;13.508;2023-05-14T00:43:55;10.77;;;6.00;;
69822;SDS011;57119;52.516;13.508;2023-05-14T00:46:20;14.27;;;6.10;;
69822;SDS011;57119;52.516;13.508;2023-05-14T00:48:46;12.90;;;6.43;;
69822;SDS011;57119;52.516;13.508;2023-05-14T00:51:11;12.07;;;6.60;;
69822;SDS011;57119;52.516;13.508;2023-05-14T00:53:37;11.27;;;6.53;;
69822;SDS011;57119;52.516;13.508;2023-05-14T00:56:02;10.10;;;6.00;;
69822;SDS011;57119;52.516;13.508;2023-05-14T00:58:28;10.98;;;5.75;;
69822;SDS011;57119;52.516;13.508;2023-05-14T01:00:53;11.03;;;6.17;;
69822;SDS011;57119;52.516;13.508;2023-05-14T01:03:19;9.57;;;5.50;;
69822;SDS011;57119;52.516;13.508;2023-05-14T01:05:47;10.10;;;5.90;;
69822;SDS011;57119;52.516;13.508;2023-05-14T01:08:39;10.27;;;6.27;;
69822;SDS011;57119;52.516;13.508;2023-05-14T01:11:22;11.32;;;6.30;;
69822;SDS011;57119;52.516;13.508;2023-05-14T01:16:47;12.13;;;6.40;;
69822;SDS011;57119;52.516;13.508;2023-05-14T01:22:11;11.57;;;6.13;;
69822;SDS011;57119;52.516;13.508;2023-05-14T01:24:37;13.18;;;6.07;;
69822;SDS011;57119;52.516;13.508;2023-05-14T01:27:13;10.60;;;5.78;;
69822;SDS011;57119;52.516;13.508;2023-05-14T01:29:58;10.63;;;6.68;;
69822;SDS011;57119;52.516;13.508;2023-05-14T01:32:38;12.77;;;5.80;;
69822;SDS011;57119;52.516;13.508;2023-05-14T01:35:04;9.63;;;5.82;;
69822;SDS011;57119;52.516;13.508;2023-05-14T01:37:31;13.50;;;7.00;;
69822;SDS011;57119;52.516;13.508;2023-05-14T01:39:57;9.30;;;5.50;;
69822;SDS011;57119;52.516;13.508;2023-05-14T01:42:24;12.17;;;6.87;;
69822;SDS011;57119;52.516;13.508;2023-05-14T01:44:50;10.35;;;6.15;;
69822;SDS011;57119;52.516;13.508;2023-05-14T01:47:15;11.67;;;6.87;;
69822;SDS011;57119;52.516;13.508;2023-05-14T01:49:41;12.30;;;6.53;;
69822;SDS011;57119;52.516;13.508;2023-05-14T01:52:06;9.47;;;6.10;;
69822;SDS011;57119;52.516;13.508;2023-05-14T01:54:32;10.52;;;6.38;;
69822;SDS011;57119;52.516;13.508;2023-05-14T01:56:58;10.57;;;6.10;;
69822;SDS011;57119;52.516;13.508;2023-05-14T01:59:23;9.00;;;5.67;;
69822;SDS011;57119;52.516;13.508;2023-05-14T02:01:49;17.43;;;6.10;;
69822;SDS011;57119;52.516;13.508;2023-05-14T02:04:14;16.60;;;9.33;;
69822;SDS011;57119;52.516;13.508;2023-05-14T02:06:40;17.23;;;9.17;;
69822;SDS011;57119;52.516;13.508;2023-05-14T02:09:05;12.00;;;6.40;;
69822;SDS011;57119;52.516;13.508;2023-05-14T02:11:31;13.23;;;7.20;;
69822;SDS011;57119;52.516;13.508;2023-05-14T02:13:56;10.33;;;6.07;;
69822;SDS011;57119;52.516;13.508;2023-05-14T02:16:22;10.85;;;6.00;;
69822;SDS011;57119;52.516;13.508;2023-05-14T02:18:47;9.10;;;5.70;;
69822;SDS011;57119;52.516;13.508;2023-05-14T02:21:12;10.43;;;5.80;;
69822;SDS011;57119;52.516;13.508;2023-05-14T02:23:38;9.57;;;5.30;;
69822;SDS011;57119;52.516;13.508;2023-05-14T02:26:03;8.68;;;5.38;;
69822;SDS011;57119;52.516;13.508;2023-05-14T02:28:29;11.30;;;5.60;;
69822;SDS011;57119;52.516;13.508;2023-05-14T02:30:58;10.50;;;5.47;;
69822;SDS011;57119;52.516;13.508;2023-05-14T02:33:27;10.80;;;5.32;;
69822;SDS011;57119;52.516;13.508;2023-05-14T02:35:52;8.93;;;5.32;;
69822;SDS011;57119;52.516;13.508;2023-05-14T02:38:18;10.03;;;5.37;;
69822;SDS011;57119;52.516;13.508;2023-05-14T02:40:44;10.65;;;6.22;;
69822;SDS011;57119;52.516;13.508;2023-05-14T02:43:10;9.60;;;5.10;;
69822;SDS011;57119;52.516;13.508;2023-05-14T02:45:35;15.53;;;5.33;;
69822;SDS011;57119;52.516;13.508;2023-05-14T02:48:00;8.25;;;5.05;;
69822;SDS011;57119;52.516;13.508;2023-05-14T02:50:26;10.37;;;4.77;;
69822;SDS011;57119;52.516;13.508;2023-05-14T02:52:51;10.27;;;5.13;;
69822;SDS011;57119;52.516;13.508;2023-05-14T02:55:17;8.37;;;4.87;;
69822;SDS011;57119;52.516;13.508;2023-05-14T02:57:42;9.88;;;4.97;;
69822;SDS011;57119;52.516;13.508;2023-05-14T03:00:08;8.73;;;4.97;;
69822;SDS011;57119;52.516;13.508;2023-05-14T03:02:33;9.48;;;5.60;;
69822;SDS011;57119;52.516;13.508;2023-05-14T03:05:00;9.07;;;5.13;;
69822;SDS011;57119;52.516;13.508;2023-05-14T03:07:25;10.32;;;4.93;;
69822;SDS011;57119;52.516;13.508;2023-05-14T03:09:51;11.47;;;5.67;;
69822;SDS011;57119;52.516;13.508;2023-05-14T03:12:16;10.87;;;5.33;;
69822;SDS011;57119;52.516;13.508;2023-05-14T03:14:42;9.85;;;4.82;;
69822;SDS011;57119;52.516;13.508;2023-05-14T03:17:08;10.50;;;5.40;;
69822;SDS011;57119;52.516;13.508;2023-05-14T03:19:33;9.20;;;5.30;;
69822;SDS011;57119;52.516;13.508;2023-05-14T03:21:59;12.97;;;5.00;;
69822;SDS011;57119;52.516;13.508;2023-05-14T03:24:24;10.70;;;5.45;;
69822;SDS011;57119;52.516;13.508;2023-05-14T03:26:50;8.83;;;5.17;;
69822;SDS011;57119;52.516;13.508;2023-05-14T03:29:15;10.33;;;5.40;;
69822;SDS011;57119;52.516;13.508;2023-05-14T03:31:42;10.98;;;5.22;;
69822;SDS011;57119;52.516;13.508;2023-05-14T03:34:08;8.80;;;5.50;;
69822;SDS011;57119;52.516;13.508;2023-05-14T03:36:33;9.37;;;4.73;;
69822;SDS011;57119;52.516;13.508;2023-05-14T03:39:00;10.85;;;5.65;;
69822;SDS011;57119;52.516;13.508;2023-05-14T03:41:26;9.87;;;5.53;;
69822;SDS011;57119;52.516;13.508;2023-05-14T03:43:51;9.07;;;5.20;;
69822;SDS011;57119;52.516;13.508;2023-05-14T03:46:17;9.03;;;5.10;;
69822;SDS011;57119;52.516;13.508;2023-05-14T03:48:42;8.77;;;5.37;;
69822;SDS011;57119;52.516;13.508;2023-05-14T03:51:07;8.20;;;4.53;;
69822;SDS011;57119;52.516;13.508;2023-05-14T03:53:33;13.20;;;4.77;;
69822;SDS011;57119;52.516;13.508;2023-05-14T03:55:58;8.70;;;4.90;;
69822;SDS011;57119;52.516;13.508;2023-05-14T03:58:24;8.87;;;4.97;;
69822;SDS011;57119;52.516;13.508;2023-05-14T04:00:49;10.37;;;5.33;;
69822;SDS011;57119;52.516;13.508;2023-05-14T04:03:15;9.70;;;5.28;;
69822;SDS011;57119;52.516;13.508;2023-05-14T04:05:40;9.37;;;5.10;;
69822;SDS011;57119;52.516;13.508;2023-05-14T04:08:06;9.10;;;4.90;;
69822;SDS011;57119;52.516;13.508;2023-05-14T04:10:31;10.20;;;5.40;;
69822;SDS011;57119;52.516;13.508;2023-05-14T04:12:57;11.50;;;4.90;;
69822;SDS011;57119;52.516;13.508;2023-05-14T04:15:22;8.50;;;5.00;;
69822;SDS011;57119;52.516;13.508;2023-05-14T04:17:48;9.05;;;4.78;;
69822;SDS011;57119;52.516;13.508;2023-05-14T04:20:13;11.27;;;5.03;;
69822;SDS011;57119;52.516;13.508;2023-05-14T04:22:38;12.13;;;5.10;;
69822;SDS011;57119;52.516;13.508;2023-05-14T04:25:04;11.00;;;5.00;;
69822;SDS011;57119;52.516;13.508;2023-05-14T04:27:31;8.82;;;4.95;;
69822;SDS011;57119;52.516;13.508;2023-05-14T04:29:57;10.18;;;5.40;;
69822;SDS011;57119;52.516;13.508;2023-05-14T04:32:22;10.67;;;5.43;;
69822;SDS011;57119;52.516;13.508;2023-05-14T04:34:48;10.18;;;5.53;;
69822;SDS011;57119;52.516;13.508;2023-05-14T04:37:14;11.27;;;5.07;;
69822;SDS011;57119;52.516;13.508;2023-05-14T04:39:40;8.52;;;5.47;;
69822;SDS011;57119;52.516;13.508;2023-05-14T04:42:08;10.60;;;5.90;;
69822;SDS011;57119;52.516;13.508;2023-05-14T04:44:34;11.63;;;5.17;;
69822;SDS011;57119;52.516;13.508;2023-05-14T04:47:00;11.05;;;5.28;;
69822;SDS011;57119;52.516;13.508;2023-05-14T04:49:26;12.63;;;5.17;;
69822;SDS011;57119;52.516;13.508;2023-05-14T04:51:52;10.35;;;5.00;;
69822;SDS011;57119;52.516;13.508;2023-05-14T04:54:17;10.23;;;5.33;;
69822;SDS011;57119;52.516;13.508;2023-05-14T04:56:42;19.63;;;6.23;;
69822;SDS011;57119;52.516;13.508;2023-05-14T04:59:08;12.60;;;5.40;;
69822;SDS011;57119;52.516;13.508;2023-05-14T05:01:33;8.93;;;4.87;;
69822;SDS011;57119;52.516;13.508;2023-05-14T05:03:59;10.60;;;5.22;;
69822;SDS011;57119;52.516;13.508;2023-05-14T05:06:24;9.30;;;5.50;;
69822;SDS011;57119;52.516;13.508;2023-05-14T05:08:50;10.10;;;4.70;;
69822;SDS011;57119;52.516;13.508;2023-05-14T05:11:15;10.40;;;5.40;;
69822;SDS011;57119;52.516;13.508;2023-05-14T05:13:41;12.25;;;5.20;;
69822;SDS011;57119;52.516;13.508;2023-05-14T05:16:06;11.27;;;5.20;;
69822;SDS011;57119;52.516;13.508;2023-05-14T05:18:32;9.33;;;5.23;;
69822;SDS011;57119;52.516;13.508;2023-05-14T05:20:57;11.03;;;6.00;;
69822;SDS011;57119;52.516;13.508;2023-05-14T05:23:23;9.98;;;5.07;;
69822;SDS011;57119;52.516;13.508;2023-05-14T05:25:48;9.83;;;4.73;;
69822;SDS011;57119;52.516;13.508;2023-05-14T05:28:14;10.90;;;5.60;;
69822;SDS011;57119;52.516;13.508;2023-05-14T05:30:40;11.83;;;5.03;;
69822;SDS011;57119;52.516;13.508;2023-05-14T05:33:05;11.60;;;5.33;;
69822;SDS011;57119;52.516;13.508;2023-05-14T05:35:31;10.50;;;5.38;;
69822;SDS011;57119;52.516;13.508;2023-05-14T05:37:57;10.17;;;5.07;;
69822;SDS011;57119;52.516;13.508;2023-05-14T05:40:22;8.70;;;5.15;;
69822;SDS011;57119;52.516;13.508;2023-05-14T05:42:48;9.60;;;4.57;;
69822;SDS011;57119;52.516;13.508;2023-05-14T05:45:13;11.53;;;5.10;;
69822;SDS011;57119;52.516;13.508;2023-05-14T05:47:39;12.23;;;5.00;;
69822;SDS011;57119;52.516;13.508;2023-05-14T05:50:04;8.67;;;4.93;;
69822;SDS011;57119;52.516;13.508;2023-05-14T05:52:31;11.23;;;5.43;;
69822;SDS011;57119;52.516;13.508;2023-05-14T05:54:57;11.03;;;5.00;;
69822;SDS011;57119;52.516;13.508;2023-05-14T05:57:22;8.05;;;4.40;;
69822;SDS011;57119;52.516;13.508;2023-05-14T05:59:48;10.77;;;4.83;;
69822;SDS011;57119;52.516;13.508;2023-05-14T06:02:13;11.70;;;4.97;;
69822;SDS011;57119;52.516;13.508;2023-05-14T06:04:38;9.63;;;4.90;;
69822;SDS011;57119;52.516;13.508;2023-05-14T06:07:04;10.50;;;4.87;;
69822;SDS011;57119;52.516;13.508;2023-05-14T06:09:30;9.73;;;4.80;;
69822;SDS011;57119;52.516;13.508;2023-05-14T06:11:55;9.60;;;5.13;;
69822;SDS011;57119;52.516;13.508;2023-05-14T06:14:21;9.67;;;4.93;;
69822;SDS011;57119;52.516;13.508;2023-05-14T06:16:46;9.60;;;5.10;;
69822;SDS011;57119;52.516;13.508;2023-05-14T06:19:12;8.13;;;4.60;;
69822;SDS011;57119;52.516;13.508;2023-05-14T06:21:37;10.90;;;5.00;;
69822;SDS011;57119;52.516;13.508;2023-05-14T06:24:03;9.50;;;5.17;;
69822;SDS011;57119;52.516;13.508;2023-05-14T06:26:29;8.43;;;5.30;;
69822;SDS011;57119;52.516;13.508;2023-05-14T06:28:54;10.47;;;5.17;;
69822;SDS011;57119;52.516;13.508;2023-05-14T06:31:19;9.07;;;4.65;;
69822;SDS011;57119;52.516;13.508;2023-05-14T06:33:45;9.30;;;4.63;;
69822;SDS011;57119;52.516;13.508;2023-05-14T06:36:11;12.47;;;5.50;;
69822;SDS011;57119;52.516;13.508;2023-05-14T06:38:36;9.77;;;4.93;;
69822;SDS011;57119;52.516;13.508;2023-05-14T06:41:02;9.60;;;4.90;;
69822;SDS011;57119;52.516;13.508;2023-05-14T06:43:27;10.15;;;4.88;;
69822;SDS011;57119;52.516;13.508;2023-05-14T06:45:53;10.27;;;4.63;;
69822;SDS011;57119;52.516;13.508;2023-05-14T06:48:19;10.80;;;5.23;;
69822;SDS011;57119;52.516;13.508;2023-05-14T06:50:45;9.48;;;4.80;;
69822;SDS011;57119;52.516;13.508;2023-05-14T06:53:12;12.15;;;5.20;;
69822;SDS011;57119;52.516;13.508;2023-05-14T06:55:38;8.60;;;5.20;;
69822;SDS011;57119;52.516;13.508;2023-05-14T06:58:05;9.55;;;4.90;;
69822;SDS011;57119;52.516;13.508;2023-05-14T07:00:31;11.52;;;4.50;;
69822;SDS011;57119;52.516;13.508;2023-05-14T07:02:56;12.33;;;4.80;;
69822;SDS011;57119;52.516;13.508;2023-05-14T07:05:22;8.77;;;5.00;;
69822;SDS011;57119;52.516;13.508;2023-05-14T07:07:47;10.37;;;4.80;;
69822;SDS011;57119;52.516;13.508;2023-05-14T07:10:13;9.60;;;5.43;;
69822;SDS011;57119;52.516;13.508;2023-05-14T07:12:38;8.97;;;4.77;;
69822;SDS011;57119;52.516;13.508;2023-05-14T07:15:04;9.45;;;4.65;;
69822;SDS011;57119;52.516;13.508;2023-05-14T07:17:33;8.03;;;4.43;;
69822;SDS011;57119;52.516;13.508;2023-05-14T07:19:58;13.73;;;5.18;;
69822;SDS011;57119;52.516;13.508;2023-05-14T07:22:24;10.50;;;5.07;;
69822;SDS011;57119;52.516;13.508;2023-05-14T07:24:49;9.87;;;5.03;;
69822;SDS011;57119;52.516;13.508;2023-05-14T07:27:15;12.77;;;5.57;;
69822;SDS011;57119;52.516;13.508;2023-05-14T07:29:41;9.27;;;4.37;;
69822;SDS011;57119;52.516;13.508;2023-05-14T07:32:06;10.43;;;4.75;;
69822;SDS011;57119;52.516;13.508;2023-05-14T07:34:32;9.00;;;4.87;;
69822;SDS011;57119;52.516;13.508;2023-05-14T07:36:57;8.47;;;4.73;;
69822;SDS011;57119;52.516;13.508;2023-05-14T07:39:23;10.90;;;4.60;;
69822;SDS011;57119;52.516;13.508;2023-05-14T07:41:48;8.93;;;4.50;;
69822;SDS011;57119;52.516;13.508;2023-05-14T07:44:15;9.73;;;4.75;;
69822;SDS011;57119;52.516;13.508;2023-05-14T07:46:40;9.83;;;4.63;;
69822;SDS011;57119;52.516;13.508;2023-05-14T07:49:06;10.10;;;4.63;;
69822;SDS011;57119;52.516;13.508;2023-05-14T07:51:31;8.63;;;4.70;;
69822;SDS011;57119;52.516;13.508;2023-05-14T07:53:57;8.48;;;4.65;;
69822;SDS011;57119;52.516;13.508;2023-05-14T07:56:23;9.33;;;4.00;;
69822;SDS011;57119;52.516;13.508;2023-05-14T07:58:49;7.63;;;3.83;;
69822;SDS011;57119;52.516;13.508;2023-05-14T08:01:15;8.37;;;4.37;;
69822;SDS011;57119;52.516;13.508;2023-05-14T08:03:41;8.88;;;4.28;;
69822;SDS011;57119;52.516;13.508;2023-05-14T08:06:06;8.90;;;4.90;;
69822;SDS011;57119;52.516;13.508;2023-05-14T08:08:32;9.52;;;4.28;;
69822;SDS011;57119;52.516;13.508;2023-05-14T08:10:58;7.27;;;4.10;;
69822;SDS011;57119;52.516;13.508;2023-05-14T08:13:23;8.57;;;4.68;;
69822;SDS011;57119;52.516;13.508;2023-05-14T08:15:49;9.00;;;4.40;;
69822;SDS011;57119;52.516;13.508;2023-05-14T08:18:14;11.27;;;4.80;;
69822;SDS011;57119;52.516;13.508;2023-05-14T08:20:40;7.13;;;4.13;;
69822;SDS011;57119;52.516;13.508;2023-05-14T08:23:05;8.10;;;4.00;;
69822;SDS011;57119;52.516;13.508;2023-05-14T08:25:31;7.78;;;3.83;;
69822;SDS011;57119;52.516;13.508;2023-05-14T08:27:57;11.37;;;5.00;;
69822;SDS011;57119;52.516;13.508;2023-05-14T08:30:23;8.85;;;4.45;;
69822;SDS011;57119;52.516;13.508;2023-05-14T08:32:49;7.50;;;4.00;;
69822;SDS011;57119;52.516;13.508;2023-05-14T08:35:15;8.03;;;4.67;;
69822;SDS011;57119;52.516;13.508;2023-05-14T08:37:41;8.02;;;4.35;;
69822;SDS011;57119;52.516;13.508;2023-05-14T08:40:07;7.72;;;4.35;;
69822;SDS011;57119;52.516;13.508;2023-05-14T08:42:33;9.33;;;4.27;;
69822;SDS011;57119;52.516;13.508;2023-05-14T08:45:00;7.53;;;3.97;;
69822;SDS011;57119;52.516;13.508;2023-05-14T08:47:27;8.43;;;4.30;;
69822;SDS011;57119;52.516;13.508;2023-05-14T08:50:04;7.32;;;4.20;;
69822;SDS011;57119;52.516;13.508;2023-05-14T08:52:32;7.43;;;4.07;;
69822;SDS011;57119;52.516;13.508;2023-05-14T08:55:03;7.17;;;4.13;;
69822;SDS011;57119;52.516;13.508;2023-05-14T08:57:29;7.97;;;4.22;;
69822;SDS011;57119;52.516;13.508;2023-05-14T08:59:58;10.02;;;4.60;;
69822;SDS011;57119;52.516;13.508;2023-05-14T09:02:26;7.65;;;3.90;;
69822;SDS011;57119;52.516;13.508;2023-05-14T09:04:54;8.00;;;4.37;;
69822;SDS011;57119;52.516;13.508;2023-05-14T09:07:21;8.07;;;4.50;;
69822;SDS011;57119;52.516;13.508;2023-05-14T09:09:46;6.95;;;3.85;;
69822;SDS011;57119;52.516;13.508;2023-05-14T09:12:12;10.73;;;4.13;;
69822;SDS011;57119;52.516;13.508;2023-05-14T09:14:38;7.45;;;4.15;;
69822;SDS011;57119;52.516;13.508;2023-05-14T09:17:03;11.77;;;4.40;;
69822;SDS011;57119;52.516;13.508;2023-05-14T09:19:29;7.70;;;4.20;;
69822;SDS011;57119;52.516;13.508;2023-05-14T09:21:56;7.37;;;3.93;;
69822;SDS011;57119;52.516;13.508;2023-05-14T09:24:25;7.38;;;4.45;;
69822;SDS011;57119;52.516;13.508;2023-05-14T09:26:53;7.63;;;3.75;;
69822;SDS011;57119;52.516;13.508;2023-05-14T09:29:20;8.40;;;4.35;;
69822;SDS011;57119;52.516;13.508;2023-05-14T09:31:48;10.50;;;4.27;;
69822;SDS011;57119;52.516;13.508;2023-05-14T09:34:28;9.18;;;4.13;;
69822;SDS011;57119;52.516;13.508;2023-05-14T09:37:01;7.15;;;4.13;;
69822;SDS011;57119;52.516;13.508;2023-05-14T09:39:29;8.23;;;3.95;;
69822;SDS011;57119;52.516;13.508;2023-05-14T09:41:57;11.52;;;4.57;;
69822;SDS011;57119;52.516;13.508;2023-05-14T09:44:23;7.37;;;3.63;;
69822;SDS011;57119;52.516;13.508;2023-05-14T09:46:49;7.13;;;3.93;;
69822;SDS011;57119;52.516;13.508;2023-05-14T09:49:15;7.68;;;4.20;;
69822;SDS011;57119;52.516;13.508;2023-05-14T09:51:41;9.60;;;3.67;;
69822;SDS011;57119;52.516;13.508;2023-05-14T09:54:07;6.82;;;3.70;;
69822;SDS011;57119;52.516;13.508;2023-05-14T09:56:33;7.65;;;4.00;;
69822;SDS011;57119;52.516;13.508;2023-05-14T09:58:59;9.20;;;4.10;;
69822;SDS011;57119;52.516;13.508;2023-05-14T10:01:25;5.73;;;3.83;;
69822;SDS011;57119;52.516;13.508;2023-05-14T10:03:52;7.00;;;4.22;;
69822;SDS011;57119;52.516;13.508;2023-05-14T10:06:20;8.68;;;4.25;;
69822;SDS011;57119;52.516;13.508;2023-05-14T10:08:48;6.80;;;3.90;;
69822;SDS011;57119;52.516;13.508;2023-05-14T10:11:18;11.20;;;5.13;;
69822;SDS011;57119;52.516;13.508;2023-05-14T10:13:48;8.73;;;4.30;;
69822;SDS011;57119;52.516;13.508;2023-05-14T10:16:26;6.75;;;3.97;;
69822;SDS011;57119;52.516;13.508;2023-05-14T10:18:57;8.00;;;4.30;;
69822;SDS011;57119;52.516;13.508;2023-05-14T10:21:32;9.70;;;3.88;;
69822;SDS011;57119;52.516;13.508;2023-05-14T10:24:01;9.97;;;4.40;;
69822;SDS011;57119;52.516;13.508;2023-05-14T10:26:35;7.88;;;3.47;;
69822;SDS011;57119;52.516;13.508;2023-05-14T10:29:03;10.82;;;4.10;;
69822;SDS011;57119;52.516;13.508;2023-05-14T10:31:43;7.03;;;4.05;;
69822;SDS011;57119;52.516;13.508;2023-05-14T10:36:59;7.20;;;3.73;;
69822;SDS011;57119;52.516;13.508;2023-05-14T10:45:02;7.68;;;3.30;;
69822;SDS011;57119;52.516;13.508;2023-05-14T10:47:31;6.15;;;3.30;;
69822;SDS011;57119;52.516;13.508;2023-05-14T10:49:58;7.77;;;3.33;;
69822;SDS011;57119;52.516;13.508;2023-05-14T10:52:26;7.55;;;3.17;;
69822;SDS011;57119;52.516;13.508;2023-05-14T10:54:53;9.70;;;3.35;;
69822;SDS011;57119;52.516;13.508;2023-05-14T10:57:22;8.23;;;3.60;;
69822;SDS011;57119;52.516;13.508;2023-05-14T10:59:53;7.75;;;3.40;;
69822;SDS011;57119;52.516;13.508;2023-05-14T11:04:57;9.00;;;3.38;;
69822;SDS011;57119;52.516;13.508;2023-05-14T11:07:36;8.65;;;3.90;;
69822;SDS011;57119;52.516;13.508;2023-05-14T11:10:06;6.85;;;3.25;;
69822;SDS011;57119;52.516;13.508;2023-05-14T11:12:34;9.63;;;3.47;;
69822;SDS011;57119;52.516;13.508;2023-05-14T11:15:02;8.20;;;3.43;;
69822;SDS011;57119;52.516;13.508;2023-05-14T11:17:30;7.50;;;3.20;;
69822;SDS011;57119;52.516;13.508;2023-05-14T11:19:56;9.02;;;3.65;;
69822;SDS011;57119;52.516;13.508;2023-05-14T11:22:23;8.38;;;3.90;;
69822;SDS011;57119;52.516;13.508;2023-05-14T11:24:49;7.63;;;3.75;;
69822;SDS011;57119;52.516;13.508;2023-05-14T11:27:15;7.37;;;3.57;;
69822;SDS011;57119;52.516;13.508;2023-05-14T11:29:45;8.70;;;3.25;;
69822;SDS011;57119;52.516;13.508;2023-05-14T11:32:11;7.43;;;3.50;;
69822;SDS011;57119;52.516;13.508;2023-05-14T11:34:37;7.43;;;3.45;;
69822;SDS011;57119;52.516;13.508;2023-05-14T11:37:04;7.00;;;3.50;;
69822;SDS011;57119;52.516;13.508;2023-05-14T11:39:31;11.07;;;3.72;;
69822;SDS011;57119;52.516;13.508;2023-05-14T11:41:57;8.80;;;4.05;;
69822;SDS011;57119;52.516;13.508;2023-05-14T11:44:23;11.03;;;4.33;;
69822;SDS011;57119;52.516;13.508;2023-05-14T11:46:55;6.68;;;3.83;;
69822;SDS011;57119;52.516;13.508;2023-05-14T11:49:22;7.45;;;3.60;;
69822;SDS011;57119;52.516;13.508;2023-05-14T11:51:59;8.93;;;3.93;;
69822;SDS011;57119;52.516;13.508;2023-05-14T11:54:26;8.23;;;3.50;;
69822;SDS011;57119;52.516;13.508;2023-05-14T11:56:56;8.30;;;3.58;;
69822;SDS011;57119;52.516;13.508;2023-05-14T11:59:28;8.85;;;3.95;;
69822;SDS011;57119;52.516;13.508;2023-05-14T12:01:55;6.70;;;4.00;;
69822;SDS011;57119;52.516;13.508;2023-05-14T12:04:21;10.20;;;3.90;;
69822;SDS011;57119;52.516;13.508;2023-05-14T12:06:50;7.80;;;4.30;;
69822;SDS011;57119;52.516;13.508;2023-05-14T12:09:19;6.97;;;3.73;;
69822;SDS011;57119;52.516;13.508;2023-05-14T12:11:47;9.07;;;4.65;;
69822;SDS011;57119;52.516;13.508;2023-05-14T12:14:23;9.32;;;4.22;;
69822;SDS011;57119;52.516;13.508;2023-05-14T12:16:49;7.97;;;4.45;;
69822;SDS011;57119;52.516;13.508;2023-05-14T12:19:18;8.35;;;4.47;;
69822;SDS011;57119;52.516;13.508;2023-05-14T12:21:46;6.90;;;3.97;;
69822;SDS011;57119;52.516;13.508;2023-05-14T12:24:15;7.95;;;3.90;;
69822;SDS011;57119;52.516;13.508;2023-05-14T12:26:45;6.45;;;3.65;;
69822;SDS011;57119;52.516;13.508;2023-05-14T12:29:12;10.27;;;4.10;;
69822;SDS011;57119;52.516;13.508;2023-05-14T12:31:43;6.78;;;4.15;;
69822;SDS011;57119;52.516;13.508;2023-05-14T12:34:11;9.90;;;3.60;;
69822;SDS011;57119;52.516;13.508;2023-05-14T12:36:36;9.23;;;3.70;;
69822;SDS011;57119;52.516;13.508;2023-05-14T12:39:02;7.53;;;3.90;;
69822;SDS011;57119;52.516;13.508;2023-05-14T12:41:31;8.07;;;4.05;;
69822;SDS011;57119;52.516;13.508;2023-05-14T12:43:57;6.28;;;3.58;;
69822;SDS011;57119;52.516;13.508;2023-05-14T12:46:23;6.70;;;3.70;;
69822;SDS011;57119;52.516;13.508;2023-05-14T12:48:50;8.43;;;3.72;;
69822;SDS011;57119;52.516;13.508;2023-05-14T12:51:15;8.40;;;3.40;;
69822;SDS011;57119;52.516;13.508;2023-05-14T12:53:41;7.13;;;3.40;;
69822;SDS011;57119;52.516;13.508;2023-05-14T12:56:06;7.97;;;3.13;;
69822;SDS011;57119;52.516;13.508;2023-05-14T12:58:32;10.43;;;3.73;;
69822;SDS011;57119;52.516;13.508;2023-05-14T13:00:57;7.37;;;3.40;;
69822;SDS011;57119;52.516;13.508;2023-05-14T13:03:22;6.57;;;2.72;;
69822;SDS011;57119;52.516;13.508;2023-05-14T13:05:49;6.63;;;2.77;;
69822;SDS011;57119;52.516;13.508;2023-05-14T13:08:16;8.23;;;3.10;;
69822;SDS011;57119;52.516;13.508;2023-05-14T13:10:43;7.05;;;2.90;;
69822;SDS011;57119;52.516;13.508;2023-05-14T13:13:09;8.43;;;3.42;;
69822;SDS011;57119;52.516;13.508;2023-05-14T13:15:35;7.93;;;3.17;;
69822;SDS011;57119;52.516;13.508;2023-05-14T13:18:01;7.47;;;3.50;;
69822;SDS011;57119;52.516;13.508;2023-05-14T13:20:26;6.53;;;3.15;;
69822;SDS011;57119;52.516;13.508;2023-05-14T13:22:53;8.03;;;3.40;;
69822;SDS011;57119;52.516;13.508;2023-05-14T13:25:18;7.72;;;3.40;;
69822;SDS011;57119;52.516;13.508;2023-05-14T13:27:44;7.60;;;3.60;;
69822;SDS011;57119;52.516;13.508;2023-05-14T13:30:10;7.55;;;3.15;;
69822;SDS011;57119;52.516;13.508;2023-05-14T13:32:36;10.90;;;5.23;;
69822;SDS011;57119;52.516;13.508;2023-05-14T13:35:01;6.68;;;3.15;;
69822;SDS011;57119;52.516;13.508;2023-05-14T13:37:27;7.27;;;2.87;;
69822;SDS011;57119;52.516;13.508;2023-05-14T13:39:52;8.33;;;3.50;;
69822;SDS011;57119;52.516;13.508;2023-05-14T13:42:17;7.90;;;3.20;;
69822;SDS011;57119;52.516;13.508;2023-05-14T13:44:43;8.50;;;3.13;;
69822;SDS011;57119;52.516;13.508;2023-05-14T13:47:08;6.47;;;3.38;;
69822;SDS011;57119;52.516;13.508;2023-05-14T13:49:34;7.53;;;3.10;;
69822;SDS011;57119;52.516;13.508;2023-05-14T13:51:59;7.75;;;3.20;;
69822;SDS011;57119;52.516;13.508;2023-05-14T13:54:25;7.27;;;3.40;;
69822;SDS011;57119;52.516;13.508;2023-05-14T13:56:50;6.93;;;3.37;;
69822;SDS011;57119;52.516;13.508;2023-05-14T13:59:16;10.00;;;3.73;;
69822;SDS011;57119;52.516;13.508;2023-05-14T14:01:41;6.35;;;3.20;;
69822;SDS011;57119;52.516;13.508;2023-05-14T14:04:08;10.37;;;3.43;;
69822;SDS011;57119;52.516;13.508;2023-05-14T14:06:34;7.85;;;4.32;;
69822;SDS011;57119;52.516;13.508;2023-05-14T14:08:59;9.73;;;4.73;;
69822;SDS011;57119;52.516;13.508;2023-05-14T14:11:25;10.40;;;3.70;;
69822;SDS011;57119;52.516;13.508;2023-05-14T14:13:51;8.40;;;3.55;;
69822;SDS011;57119;52.516;13.508;2023-05-14T14:16:16;8.63;;;3.73;;
69822;SDS011;57119;52.516;13.508;2023-05-14T14:18:42;6.53;;;3.10;;
69822;SDS011;57119;52.516;13.508;2023-05-14T14:21:07;6.68;;;3.72;;
69822;SDS011;57119;52.516;13.508;2023-05-14T14:23:33;8.00;;;3.50;;
69822;SDS011;57119;52.516;13.508;2023-05-14T14:25:59;7.88;;;3.25;;
69822;SDS011;57119;52.516;13.508;2023-05-14T14:28:24;6.27;;;3.33;;
69822;SDS011;57119;52.516;13.508;2023-05-14T14:30:50;8.37;;;4.00;;
69822;SDS011;57119;52.516;13.508;2023-05-14T14:33:15;7.30;;;2.67;;
69822;SDS011;57119;52.516;13.508;2023-05-14T14:35:40;6.73;;;2.93;;
69822;SDS011;57119;52.516;13.508;2023-05-14T14:38:06;7.13;;;3.03;;
69822;SDS011;57119;52.516;13.508;2023-05-14T14:40:32;8.83;;;3.33;;